Time;durP1;ratioP1;P1;durP2;ratioP2;P2;SDS_P1;SDS_P2;PMS_P1;PMS_P2;Temp;Humidity;BMP_temperature;BMP_pressure;BME280_temperature;BME280_humidity;BME280_pressure;Samples;Min_cycle;Max_cycle;Signal;HPM_P1;HPM_P2
2023/01/28 00:00:08;;;;;;;11.65;6.97;;;;;;;;;;4991706;28;20028;-61
2023/01/28 00:02:34;;;;;;;8.75;5.95;;;;;;;;;;4991254;28;20029;-61
2023/01/28 00:05:00;;;;;;;10.85;6.60;;;;;;;;;;4991597;28;20031;-61
2023/01/28 00:07:26;;;;;;;11.50;6.70;;;;;;;;;;4991535;28;20025;-61
2023/01/28 00:09:52;;;;;;;12.40;6.35;;;;;;;;;;4991394;28;20116;-60
2023/01/28 00:12:17;;;;;;;9.63;6.45;;;;;;;;;;4991507;28;20022;-61
2023/01/28 00:14:45;;;;;;;11.77;6.47;;;;;;;;;;4991426;28;20517;-61
2023/01/28 00:17:10;;;;;;;11.50;6.40;;;;;;;;;;4991268;28;20085;-61
2023/01/28 00:19:37;;;;;;;10.23;6.25;;;;;;;;;;4991359;28;20061;-61
2023/01/28 00:22:03;;;;;;;10.80;6.45;;;;;;;;;;4991311;28;20474;-63
2023/01/28 00:24:29;;;;;;;9.60;5.90;;;;;;;;;;4991244;28;20036;-61
2023/01/28 00:26:54;;;;;;;9.13;6.00;;;;;;;;;;4989423;28;20027;-61
2023/01/28 00:29:20;;;;;;;12.95;6.15;;;;;;;;;;4991353;28;20467;-61
2023/01/28 00:31:45;;;;;;;9.30;6.13;;;;;;;;;;4973942;28;20101;-61
2023/01/28 00:34:11;;;;;;;11.82;6.50;;;;;;;;;;4992773;28;20113;-61
2023/01/28 00:36:38;;;;;;;13.50;6.28;;;;;;;;;;4995639;28;20120;-61
2023/01/28 00:39:04;;;;;;;9.35;6.10;;;;;;;;;;4995274;28;20049;-61
2023/01/28 00:41:30;;;;;;;8.30;5.82;;;;;;;;;;4995522;28;20033;-61
2023/01/28 00:43:56;;;;;;;9.63;6.18;;;;;;;;;;4995099;28;20042;-61
2023/01/28 00:46:24;;;;;;;11.00;6.78;;;;;;;;;;4995085;28;20506;-60
2023/01/28 00:48:49;;;;;;;15.73;6.53;;;;;;;;;;4995490;28;20033;-61
2023/01/28 00:51:16;;;;;;;10.95;6.30;;;;;;;;;;4994985;28;20101;-62
2023/01/28 00:53:43;;;;;;;10.75;6.15;;;;;;;;;;4995041;28;20053;-61
2023/01/28 00:56:12;;;;;;;8.85;5.90;;;;;;;;;;4995389;28;20086;-60
2023/01/28 00:58:38;;;;;;;10.13;7.03;;;;;;;;;;4995252;28;20117;-61
2023/01/28 01:01:12;;;;;;;8.77;6.43;;;;;;;;;;4994895;28;20103;-61
2023/01/28 01:03:38;;;;;;;9.73;6.00;;;;;;;;;;4994822;28;20040;-61
2023/01/28 01:06:04;;;;;;;10.80;6.15;;;;;;;;;;4995582;28;20027;-60
2023/01/28 01:08:33;;;;;;;10.93;6.32;;;;;;;;;;4994981;28;20057;-61
2023/01/28 01:11:03;;;;;;;10.02;6.45;;;;;;;;;;4996383;28;20018;-61
2023/01/28 01:13:30;;;;;;;10.35;6.78;;;;;;;;;;4995216;28;20081;-61
2023/01/28 01:16:07;;;;;;;10.52;6.55;;;;;;;;;;4995826;28;20034;-61
2023/01/28 01:18:33;;;;;;;9.25;6.20;;;;;;;;;;4996521;28;20030;-61
2023/01/28 01:20:59;;;;;;;9.25;6.57;;;;;;;;;;4996030;28;20502;-60
2023/01/28 01:23:26;;;;;;;8.05;5.93;;;;;;;;;;4996394;28;20069;-60
2023/01/28 01:25:52;;;;;;;10.85;6.78;;;;;;;;;;4996043;28;20026;-61
2023/01/28 01:28:17;;;;;;;11.02;6.07;;;;;;;;;;4995997;28;20109;-60
2023/01/28 01:30:43;;;;;;;9.48;6.80;;;;;;;;;;4996373;28;20100;-61
2023/01/28 01:33:08;;;;;;;10.23;6.20;;;;;;;;;;4978494;28;20022;-60
2023/01/28 01:35:34;;;;;;;13.63;6.40;;;;;;;;;;4994878;28;20034;-60
2023/01/28 01:38:00;;;;;;;7.75;5.43;;;;;;;;;;4990442;28;20367;-61
2023/01/28 01:40:28;;;;;;;8.07;5.85;;;;;;;;;;4976328;28;20360;-61
2023/01/28 01:42:54;;;;;;;11.85;6.32;;;;;;;;;;4976350;28;20101;-62
2023/01/28 01:45:20;;;;;;;10.23;6.82;;;;;;;;;;4987850;28;20395;-60
2023/01/28 01:47:51;;;;;;;9.93;6.22;;;;;;;;;;4984661;28;20019;-61
2023/01/28 01:50:30;;;;;;;9.65;6.47;;;;;;;;;;4985389;28;20026;-61
2023/01/28 01:53:01;;;;;;;10.93;6.13;;;;;;;;;;4985284;28;20643;-61
2023/01/28 01:55:30;;;;;;;8.32;5.85;;;;;;;;;;4985264;28;20025;-61
2023/01/28 01:57:59;;;;;;;10.00;6.80;;;;;;;;;;4985236;28;20105;-60
2023/01/28 02:00:25;;;;;;;9.10;6.68;;;;;;;;;;4984157;28;20019;-61
2023/01/28 02:02:52;;;;;;;8.73;5.88;;;;;;;;;;4984265;28;20034;-61
2023/01/28 02:05:20;;;;;;;10.32;5.78;;;;;;;;;;4985190;28;20442;-60
2023/01/28 02:07:48;;;;;;;10.48;6.40;;;;;;;;;;4984153;28;20015;-60
2023/01/28 02:10:14;;;;;;;10.13;6.15;;;;;;;;;;4984670;28;20022;-61
2023/01/28 02:12:44;;;;;;;9.38;6.43;;;;;;;;;;4984749;28;20035;-60
2023/01/28 02:15:20;;;;;;;8.32;6.10;;;;;;;;;;4985523;28;20045;-60
2023/01/28 02:17:48;;;;;;;9.48;5.82;;;;;;;;;;4986254;28;20053;-60
2023/01/28 02:20:35;;;;;;;9.95;6.28;;;;;;;;;;4994235;28;20053;-61
2023/01/28 02:23:06;;;;;;;10.95;6.00;;;;;;;;;;4994355;28;20053;-61
2023/01/28 02:25:56;;;;;;;9.38;5.88;;;;;;;;;;4993405;28;20030;-60
2023/01/28 02:28:46;;;;;;;10.73;6.17;;;;;;;;;;4994687;28;20076;-60
2023/01/28 02:31:17;;;;;;;9.13;6.13;;;;;;;;;;4994987;28;20368;-60
2023/01/28 02:34:04;;;;;;;8.90;5.90;;;;;;;;;;4993678;28;20030;-60
2023/01/28 02:36:57;;;;;;;9.65;5.68;;;;;;;;;;4994522;28;20065;-60
2023/01/28 02:39:30;;;;;;;9.30;6.15;;;;;;;;;;4994770;28;20026;-61
2023/01/28 02:42:05;;;;;;;10.68;6.13;;;;;;;;;;4994643;28;20026;-60
2023/01/28 02:44:31;;;;;;;10.15;6.60;;;;;;;;;;4994881;28;20622;-61
2023/01/28 02:49:49;;;;;;;9.68;6.28;;;;;;;;;;4994671;28;20084;-60
2023/01/28 02:55:34;;;;;;;9.07;6.10;;;;;;;;;;4994552;28;20049;-61
2023/01/28 02:58:10;;;;;;;8.43;6.10;;;;;;;;;;4993675;28;20173;-60
2023/01/28 03:00:43;;;;;;;9.45;6.07;;;;;;;;;;4994379;28;20030;-61
2023/01/28 03:03:11;;;;;;;10.30;6.38;;;;;;;;;;4994461;28;20038;-61
2023/01/28 03:06:07;;;;;;;9.90;6.20;;;;;;;;;;4994325;28;20033;-60
2023/01/28 03:37:03;;;;;;;9.38;6.30;;;;;;;;;;4993986;28;20033;-60
2023/01/28 03:39:29;;;;;;;12.25;6.93;;;;;;;;;;4993894;28;20030;-60
2023/01/28 03:42:06;;;;;;;10.40;6.40;;;;;;;;;;4993512;28;20037;-60
2023/01/28 03:44:51;;;;;;;8.60;5.50;;;;;;;;;;4993894;28;20042;-60
2023/01/28 03:47:29;;;;;;;10.10;6.53;;;;;;;;;;4993529;28;20033;-61
2023/01/28 03:49:58;;;;;;;11.05;6.40;;;;;;;;;;4993540;28;20038;-60
2023/01/28 03:52:27;;;;;;;9.75;6.90;;;;;;;;;;4993612;28;20058;-60
2023/01/28 03:54:52;;;;;;;8.77;6.32;;;;;;;;;;4993383;28;20026;-61
2023/01/28 03:57:21;;;;;;;9.07;6.18;;;;;;;;;;4993586;28;20034;-60
2023/01/28 03:59:51;;;;;;;8.40;6.15;;;;;;;;;;4993338;28;20463;-60
2023/01/28 04:02:18;;;;;;;11.57;6.63;;;;;;;;;;4993222;28;20117;-60
2023/01/28 04:04:44;;;;;;;10.88;5.93;;;;;;;;;;4993506;28;20050;-61
2023/01/28 04:07:11;;;;;;;9.77;6.25;;;;;;;;;;4993143;28;20019;-61
2023/01/28 04:09:36;;;;;;;9.25;6.28;;;;;;;;;;4993125;28;20028;-60
2023/01/28 04:12:03;;;;;;;9.15;5.95;;;;;;;;;;4993345;28;20046;-61
2023/01/28 04:14:29;;;;;;;8.35;5.72;;;;;;;;;;4993083;28;20467;-60
2023/01/28 04:16:55;;;;;;;9.25;6.20;;;;;;;;;;4992855;28;20050;-60
2023/01/28 04:19:20;;;;;;;11.43;6.38;;;;;;;;;;4993107;28;20084;-60
2023/01/28 04:21:47;;;;;;;9.63;6.30;;;;;;;;;;4992920;28;20401;-61
2023/01/28 04:24:14;;;;;;;9.48;6.10;;;;;;;;;;4993073;28;20030;-61
2023/01/28 04:26:40;;;;;;;8.98;5.70;;;;;;;;;;4993020;28;20022;-60
2023/01/28 04:29:05;;;;;;;9.75;6.38;;;;;;;;;;4993277;28;20508;-60
2023/01/28 04:31:32;;;;;;;8.63;5.60;;;;;;;;;;4992984;28;20092;-61
2023/01/28 04:33:58;;;;;;;9.50;6.80;;;;;;;;;;4992901;28;20034;-60
2023/01/28 04:36:24;;;;;;;10.27;6.45;;;;;;;;;;4992913;28;20031;-60
2023/01/28 04:38:50;;;;;;;10.65;6.20;;;;;;;;;;4992782;28;20038;-61
2023/01/28 04:41:15;;;;;;;8.88;6.28;;;;;;;;;;4992883;28;20022;-60
2023/01/28 04:43:41;;;;;;;8.77;6.07;;;;;;;;;;4992722;28;20026;-60
2023/01/28 04:46:07;;;;;;;8.65;5.90;;;;;;;;;;4992819;28;20030;-60
2023/01/28 04:48:33;;;;;;;10.30;7.10;;;;;;;;;;4992728;28;20026;-61
2023/01/28 04:50:59;;;;;;;10.85;6.18;;;;;;;;;;4975402;28;20078;-62
2023/01/28 04:53:25;;;;;;;12.23;6.38;;;;;;;;;;4992682;28;20026;-61
2023/01/28 04:55:51;;;;;;;10.18;6.28;;;;;;;;;;4992716;28;20023;-61
2023/01/28 04:58:16;;;;;;;8.55;6.32;;;;;;;;;;4992591;28;20023;-61
2023/01/28 05:00:42;;;;;;;6.40;5.18;;;;;;;;;;4992706;28;20023;-61
2023/01/28 05:03:07;;;;;;;9.60;6.15;;;;;;;;;;4992612;28;20186;-61
2023/01/28 05:05:33;;;;;;;9.88;6.60;;;;;;;;;;4992678;28;20018;-60
2023/01/28 05:07:59;;;;;;;9.13;6.13;;;;;;;;;;4992589;28;20037;-60
2023/01/28 05:10:26;;;;;;;9.93;6.43;;;;;;;;;;4992921;28;20117;-60
2023/01/28 05:12:52;;;;;;;10.98;6.68;;;;;;;;;;4992617;28;20077;-60
2023/01/28 05:15:19;;;;;;;8.15;5.85;;;;;;;;;;4992693;28;20026;-61
2023/01/28 05:17:45;;;;;;;8.10;6.10;;;;;;;;;;4992393;28;20113;-60
2023/01/28 05:20:12;;;;;;;8.18;5.47;;;;;;;;;;4993945;28;20035;-61
2023/01/28 05:22:39;;;;;;;10.25;6.75;;;;;;;;;;4995846;28;20061;-60
2023/01/28 05:25:05;;;;;;;9.85;6.53;;;;;;;;;;4996208;28;20019;-61
2023/01/28 05:27:32;;;;;;;9.10;6.25;;;;;;;;;;4996005;28;20033;-60
2023/01/28 05:29:58;;;;;;;9.60;6.45;;;;;;;;;;4996242;28;20091;-60
2023/01/28 05:32:24;;;;;;;9.80;6.13;;;;;;;;;;4995938;28;20034;-61
2023/01/28 05:34:50;;;;;;;9.43;6.35;;;;;;;;;;4995952;28;20064;-60
2023/01/28 05:37:16;;;;;;;10.10;6.60;;;;;;;;;;4995792;28;20055;-61
2023/01/28 05:39:41;;;;;;;9.60;6.22;;;;;;;;;;4996091;28;20437;-61
2023/01/28 05:42:07;;;;;;;9.50;6.10;;;;;;;;;;4995711;28;20559;-61
2023/01/28 05:44:32;;;;;;;9.57;5.55;;;;;;;;;;4995991;28;20026;-60
2023/01/28 05:46:58;;;;;;;11.27;7.22;;;;;;;;;;4978249;28;20474;-61
2023/01/28 05:49:25;;;;;;;9.60;6.10;;;;;;;;;;4995836;28;20026;-62
2023/01/28 05:51:51;;;;;;;9.73;6.07;;;;;;;;;;4995640;28;20048;-61
2023/01/28 05:54:16;;;;;;;11.07;6.35;;;;;;;;;;4995882;28;20033;-62
2023/01/28 05:56:42;;;;;;;8.15;6.15;;;;;;;;;;4995800;28;20030;-61
2023/01/28 05:59:10;;;;;;;8.98;5.95;;;;;;;;;;4995544;28;20474;-61
2023/01/28 06:01:36;;;;;;;9.85;6.53;;;;;;;;;;4995430;28;20061;-61
2023/01/28 06:04:02;;;;;;;12.27;6.85;;;;;;;;;;4995382;28;20070;-63
2023/01/28 06:06:28;;;;;;;10.00;6.97;;;;;;;;;;4995322;28;20026;-61
2023/01/28 06:08:54;;;;;;;9.43;6.43;;;;;;;;;;4995642;28;20057;-61
2023/01/28 06:11:19;;;;;;;9.82;6.45;;;;;;;;;;4995325;28;20093;-61
2023/01/28 06:13:45;;;;;;;9.55;6.65;;;;;;;;;;4995547;28;20441;-61
2023/01/28 06:16:11;;;;;;;11.48;6.75;;;;;;;;;;4995189;28;20483;-61
2023/01/28 06:18:36;;;;;;;11.00;7.38;;;;;;;;;;4995236;28;20053;-60
2023/01/28 06:21:02;;;;;;;9.60;6.30;;;;;;;;;;4995152;28;20031;-61
2023/01/28 06:23:27;;;;;;;10.50;6.68;;;;;;;;;;4995304;28;20037;-61
2023/01/28 06:25:54;;;;;;;10.43;6.60;;;;;;;;;;4995096;28;20162;-60
2023/01/28 06:28:20;;;;;;;10.02;6.72;;;;;;;;;;4995010;28;20022;-61
2023/01/28 06:30:52;;;;;;;9.50;6.60;;;;;;;;;;4994352;28;20033;-61
2023/01/28 06:33:19;;;;;;;10.80;6.55;;;;;;;;;;4994767;28;20031;-60
2023/01/28 06:35:45;;;;;;;10.73;7.30;;;;;;;;;;4995059;28;20056;-61
2023/01/28 06:38:12;;;;;;;10.02;6.97;;;;;;;;;;4977363;28;20546;-61
2023/01/28 06:40:37;;;;;;;9.15;6.70;;;;;;;;;;4994909;28;20019;-61
2023/01/28 06:43:04;;;;;;;10.68;6.95;;;;;;;;;;4994608;28;20523;-61
2023/01/28 06:45:31;;;;;;;9.85;6.78;;;;;;;;;;4994519;28;20026;-60
2023/01/28 06:47:57;;;;;;;9.75;6.40;;;;;;;;;;4994944;28;20034;-60
2023/01/28 06:50:22;;;;;;;9.68;6.57;;;;;;;;;;4994576;28;20362;-61
2023/01/28 06:52:48;;;;;;;10.85;6.90;;;;;;;;;;4994524;28;20032;-60
2023/01/28 06:55:14;;;;;;;10.60;6.93;;;;;;;;;;4994300;28;20027;-60
2023/01/28 06:57:40;;;;;;;10.88;6.60;;;;;;;;;;4977009;28;20057;-61
2023/01/28 07:00:09;;;;;;;11.40;6.72;;;;;;;;;;4994404;28;20022;-60
2023/01/28 07:02:35;;;;;;;11.55;7.40;;;;;;;;;;4994522;28;20034;-60
2023/01/28 07:05:02;;;;;;;10.30;6.63;;;;;;;;;;4994310;28;20056;-61
2023/01/28 07:07:29;;;;;;;11.48;7.10;;;;;;;;;;4994153;28;20058;-61
2023/01/28 07:09:54;;;;;;;9.30;6.60;;;;;;;;;;4994362;28;20030;-61
2023/01/28 07:12:20;;;;;;;10.23;7.03;;;;;;;;;;4994157;28;20478;-60
2023/01/28 07:14:45;;;;;;;11.65;7.13;;;;;;;;;;4994091;28;20080;-60
2023/01/28 07:17:11;;;;;;;10.38;7.13;;;;;;;;;;4993907;28;20050;-60
2023/01/28 07:19:36;;;;;;;10.98;7.22;;;;;;;;;;4994094;28;20035;-60
2023/01/28 07:22:02;;;;;;;11.30;7.35;;;;;;;;;;4994161;28;20105;-61
2023/01/28 07:24:29;;;;;;;11.57;7.63;;;;;;;;;;4994012;28;20026;-61
2023/01/28 07:26:54;;;;;;;9.95;6.82;;;;;;;;;;4994138;28;20031;-60
2023/01/28 07:29:20;;;;;;;10.57;7.45;;;;;;;;;;4993803;28;20522;-60
2023/01/28 07:31:46;;;;;;;12.32;7.60;;;;;;;;;;4993750;28;20026;-60
2023/01/28 07:34:11;;;;;;;11.73;7.65;;;;;;;;;;4993715;28;20045;-61
2023/01/28 07:36:38;;;;;;;9.80;7.00;;;;;;;;;;4993971;28;20410;-60
2023/01/28 07:39:06;;;;;;;11.65;7.50;;;;;;;;;;4993666;28;20034;-61
2023/01/28 07:41:31;;;;;;;10.77;7.20;;;;;;;;;;4993631;28;20169;-62
2023/01/28 07:43:57;;;;;;;12.05;7.25;;;;;;;;;;4975890;28;20105;-62
2023/01/28 07:46:22;;;;;;;10.98;6.88;;;;;;;;;;4993606;28;20446;-64
2023/01/28 07:48:48;;;;;;;12.25;6.85;;;;;;;;;;4993762;28;20059;-61
2023/01/28 07:51:13;;;;;;;10.32;6.97;;;;;;;;;;4993609;28;20394;-61
2023/01/28 07:53:39;;;;;;;12.85;7.55;;;;;;;;;;4993736;28;20061;-60
2023/01/28 07:56:05;;;;;;;11.45;7.57;;;;;;;;;;4993338;28;20066;-61
2023/01/28 07:58:34;;;;;;;10.35;7.35;;;;;;;;;;4975849;28;20108;-60
2023/01/28 08:01:00;;;;;;;10.70;7.45;;;;;;;;;;4993334;28;20026;-60
2023/01/28 08:03:27;;;;;;;11.27;7.47;;;;;;;;;;4993163;28;20458;-61
2023/01/28 08:05:54;;;;;;;11.52;7.53;;;;;;;;;;4993207;28;20088;-60
2023/01/28 08:08:26;;;;;;;12.48;7.65;;;;;;;;;;4993394;28;20484;-61
2023/01/28 08:10:52;;;;;;;12.40;8.07;;;;;;;;;;4983597;28;20029;-64
2023/01/28 08:13:19;;;;;;;11.77;7.28;;;;;;;;;;4979385;28;20500;-61
2023/01/28 08:15:45;;;;;;;11.48;7.00;;;;;;;;;;4979156;28;20034;-63
2023/01/28 08:18:13;;;;;;;10.43;7.05;;;;;;;;;;4945967;28;20022;-62
2023/01/28 08:20:40;;;;;;;11.38;7.35;;;;;;;;;;4972406;28;20022;-61
2023/01/28 08:23:12;;;;;;;12.02;8.27;;;;;;;;;;4972444;28;20042;-61
2023/01/28 08:25:38;;;;;;;11.95;8.00;;;;;;;;;;4980291;28;20044;-60
2023/01/28 08:28:05;;;;;;;11.25;7.18;;;;;;;;;;4980384;28;20097;-61
2023/01/28 08:30:32;;;;;;;10.88;7.55;;;;;;;;;;4982016;28;20053;-60
2023/01/28 08:32:59;;;;;;;14.02;7.72;;;;;;;;;;4982767;28;20042;-60
2023/01/28 08:35:26;;;;;;;11.43;7.30;;;;;;;;;;4974771;28;20488;-63
2023/01/28 08:37:52;;;;;;;10.55;7.28;;;;;;;;;;4974816;28;20386;-61
2023/01/28 08:40:18;;;;;;;10.38;7.32;;;;;;;;;;4973779;28;20467;-60
2023/01/28 08:42:51;;;;;;;11.43;7.47;;;;;;;;;;4973095;28;20506;-61
2023/01/28 08:45:21;;;;;;;12.27;8.10;;;;;;;;;;4971353;28;20479;-60
2023/01/28 08:47:51;;;;;;;11.98;8.02;;;;;;;;;;4957671;28;20042;-60
2023/01/28 08:50:19;;;;;;;9.93;7.70;;;;;;;;;;4955866;28;20070;-61
2023/01/28 08:52:46;;;;;;;11.10;7.80;;;;;;;;;;4973588;28;20031;-60
2023/01/28 08:55:12;;;;;;;10.70;7.30;;;;;;;;;;4975094;28;20034;-60
2023/01/28 08:57:38;;;;;;;11.93;8.20;;;;;;;;;;4960583;28;20486;-60
2023/01/28 09:00:05;;;;;;;11.95;7.45;;;;;;;;;;4976551;28;20023;-61
2023/01/28 09:02:30;;;;;;;13.80;8.25;;;;;;;;;;4979852;28;20041;-62
2023/01/28 09:04:56;;;;;;;10.77;7.85;;;;;;;;;;4996003;28;20034;-61
2023/01/28 09:07:22;;;;;;;11.75;7.80;;;;;;;;;;4994610;28;20031;-61
2023/01/28 09:09:47;;;;;;;12.00;7.80;;;;;;;;;;4996474;28;20659;-60
2023/01/28 09:12:13;;;;;;;11.88;8.00;;;;;;;;;;4996893;28;20064;-62
2023/01/28 09:14:39;;;;;;;13.13;7.88;;;;;;;;;;4991449;28;20034;-61
2023/01/28 09:17:04;;;;;;;13.90;8.60;;;;;;;;;;4993982;28;20050;-60
2023/01/28 09:19:30;;;;;;;12.20;8.60;;;;;;;;;;4995163;28;20030;-61
2023/01/28 09:21:56;;;;;;;10.93;7.60;;;;;;;;;;4994695;28;20034;-61
2023/01/28 09:24:22;;;;;;;12.20;7.95;;;;;;;;;;4993962;28;20072;-61
2023/01/28 09:26:48;;;;;;;12.88;7.85;;;;;;;;;;4994907;28;20041;-60
2023/01/28 09:29:14;;;;;;;13.18;8.38;;;;;;;;;;4994280;28;20101;-60
2023/01/28 09:31:41;;;;;;;12.23;8.43;;;;;;;;;;4984587;28;20115;-61
2023/01/28 09:34:07;;;;;;;13.63;8.32;;;;;;;;;;4975114;28;20066;-61
2023/01/28 09:36:34;;;;;;;12.50;8.10;;;;;;;;;;4974626;28;20491;-60
2023/01/28 09:39:01;;;;;;;11.05;8.20;;;;;;;;;;4974793;28;20054;-61
2023/01/28 09:41:56;;;;;;;12.38;8.18;;;;;;;;;;4974832;28;20026;-60
2023/01/28 09:44:48;;;;;;;14.07;8.38;;;;;;;;;;4953926;28;20039;-61
2023/01/28 09:47:58;;;;;;;12.57;7.95;;;;;;;;;;4974839;28;20129;-60
2023/01/28 09:50:39;;;;;;;11.98;8.25;;;;;;;;;;4969743;28;20046;-62
2023/01/28 09:53:16;;;;;;;13.90;8.18;;;;;;;;;;4974486;28;20092;-61
2023/01/28 09:55:55;;;;;;;13.15;7.97;;;;;;;;;;4974352;28;20127;-61
2023/01/28 09:58:20;;;;;;;17.02;8.25;;;;;;;;;;4974379;28;20035;-60
2023/01/28 10:00:57;;;;;;;12.48;8.20;;;;;;;;;;4974440;28;20031;-61
2023/01/28 10:03:59;;;;;;;11.60;8.23;;;;;;;;;;4974234;28;20039;-60
2023/01/28 10:06:34;;;;;;;10.90;8.05;;;;;;;;;;4973840;28;20094;-61
2023/01/28 10:09:11;;;;;;;12.57;7.90;;;;;;;;;;4974289;28;20066;-60
2023/01/28 10:11:39;;;;;;;12.00;8.63;;;;;;;;;;4981921;28;20109;-61
2023/01/28 10:14:31;;;;;;;12.65;8.40;;;;;;;;;;4993582;28;20070;-61
2023/01/28 10:17:11;;;;;;;13.75;8.05;;;;;;;;;;4963294;28;20049;-61
2023/01/28 10:19:42;;;;;;;;;;;;;;;;;;4993954;28;20034;-60
2023/01/28 10:22:22;;;;;;;11.55;7.85;;;;;;;;;;4993425;28;19941;-62
2023/01/28 10:24:57;;;;;;;12.93;8.23;;;;;;;;;;4993546;28;20160;-61
2023/01/28 10:27:27;;;;;;;11.88;8.25;;;;;;;;;;4993189;28;20046;-60
2023/01/28 10:29:54;;;;;;;;;;;;;;;;;;4993890;28;20562;-62
2023/01/28 10:32:22;;;;;;;12.63;7.97;;;;;;;;;;4993162;28;19914;-63
2023/01/28 10:34:50;;;;;;;13.68;8.73;;;;;;;;;;4993388;28;20030;-61
2023/01/28 10:37:16;;;;;;;12.77;8.68;;;;;;;;;;4992893;28;20040;-62
2023/01/28 10:39:42;;;;;;;10.00;7.50;;;;;;;;;;4993108;28;20026;-61
2023/01/28 10:42:35;;;;;;;11.48;7.53;;;;;;;;;;4992979;28;20032;-63
2023/01/28 10:45:22;;;;;;;12.88;8.20;;;;;;;;;;4993070;28;20030;-61
2023/01/28 10:48:00;;;;;;;12.90;8.40;;;;;;;;;;4992860;28;20037;-60
2023/01/28 10:50:28;;;;;;;14.18;8.32;;;;;;;;;;4984516;28;20026;-61
2023/01/28 10:52:56;;;;;;;14.60;8.85;;;;;;;;;;4992997;28;20038;-60
2023/01/28 10:55:23;;;;;;;12.45;7.93;;;;;;;;;;4993099;28;20113;-60
2023/01/28 10:57:49;;;;;;;10.63;7.93;;;;;;;;;;4991912;28;20026;-60
2023/01/28 11:00:29;;;;;;;13.65;8.43;;;;;;;;;;4993015;28;20045;-60
2023/01/28 11:02:56;;;;;;;13.43;7.75;;;;;;;;;;4992705;28;20066;-61
2023/01/28 11:05:28;;;;;;;12.50;7.47;;;;;;;;;;4992798;28;20026;-60
2023/01/28 11:08:13;;;;;;;11.90;7.90;;;;;;;;;;4975324;28;20120;-61
2023/01/28 11:10:39;;;;;;;12.63;8.18;;;;;;;;;;4992932;28;20383;-60
2023/01/28 11:13:14;;;;;;;12.48;8.05;;;;;;;;;;4992649;28;20034;-59
2023/01/28 11:15:52;;;;;;;12.10;8.20;;;;;;;;;;4992272;28;20045;-61
2023/01/28 11:18:25;;;;;;;10.07;7.43;;;;;;;;;;4991545;28;20026;-59
2023/01/28 11:20:55;;;;;;;11.25;7.95;;;;;;;;;;4992485;28;20026;-57
2023/01/28 11:23:28;;;;;;;12.05;8.10;;;;;;;;;;4992472;28;20041;-60
2023/01/28 11:26:03;;;;;;;12.05;7.47;;;;;;;;;;4990371;28;20040;-59
2023/01/28 11:28:30;;;;;;;12.95;8.07;;;;;;;;;;4992413;28;20430;-61
2023/01/28 11:30:57;;;;;;;11.77;7.55;;;;;;;;;;4992242;28;20034;-59
2023/01/28 11:33:43;;;;;;;11.15;7.53;;;;;;;;;;4992247;28;20124;-60
2023/01/28 11:36:20;;;;;;;13.55;7.80;;;;;;;;;;4991922;28;20568;-60
2023/01/28 11:38:57;;;;;;;12.05;7.50;;;;;;;;;;4992070;28;20030;-60
2023/01/28 11:41:40;;;;;;;11.50;8.10;;;;;;;;;;4992131;28;20097;-61
2023/01/28 11:44:12;;;;;;;11.63;7.82;;;;;;;;;;4992000;28;20031;-60
2023/01/28 11:47:09;;;;;;;11.07;7.75;;;;;;;;;;4991751;28;20084;-60
2023/01/28 11:49:49;;;;;;;11.20;7.72;;;;;;;;;;4964838;28;20049;-60
2023/01/28 11:52:20;;;;;;;;;;;;;;;;;;4992199;28;20872;-60
2023/01/28 11:54:52;;;;;;;10.98;7.95;;;;;;;;;;4991846;28;19941;-60
2023/01/28 11:57:33;;;;;;;12.50;7.68;;;;;;;;;;4991858;28;20427;-60
2023/01/28 12:00:19;;;;;;;11.73;7.85;;;;;;;;;;4986845;28;20089;-60
2023/01/28 12:03:23;;;;;;;11.20;7.60;;;;;;;;;;4990161;28;20041;-61
2023/01/28 12:06:18;;;;;;;11.02;7.60;;;;;;;;;;4990962;28;20205;-60
2023/01/28 12:08:50;;;;;;;10.57;7.32;;;;;;;;;;4921694;28;20040;-60
2023/01/28 12:12:13;;;;;;;11.30;7.60;;;;;;;;;;4991560;28;20041;-60
2023/01/28 12:14:27;;;;;;;11.52;8.13;;;;;;;;;;4983930;28;20124;-61
2023/01/28 12:17:19;;;;;;;11.70;8.30;;;;;;;;;;4991176;28;20050;-60
2023/01/28 12:19:57;;;;;;;13.27;8.65;;;;;;;;;;4991480;28;20038;-60
2023/01/28 12:22:45;;;;;;;12.55;8.43;;;;;;;;;;4991488;28;20081;-61
2023/01/28 12:25:16;;;;;;;11.90;7.57;;;;;;;;;;4991461;28;20041;-60
2023/01/28 12:27:59;;;;;;;11.63;7.40;;;;;;;;;;4991417;28;20034;-60
2023/01/28 12:30:55;;;;;;;13.57;7.95;;;;;;;;;;4990378;28;20084;-60
2023/01/28 12:33:21;;;;;;;12.38;8.20;;;;;;;;;;4991267;28;20026;-60
2023/01/28 12:36:11;;;;;;;13.15;7.65;;;;;;;;;;4991191;28;20658;-61
2023/01/28 12:39:17;;;;;;;11.23;7.95;;;;;;;;;;4991002;28;20109;-61
2023/01/28 12:41:48;;;;;;;11.35;8.05;;;;;;;;;;4991312;28;20508;-60
2023/01/28 12:44:30;;;;;;;11.60;7.63;;;;;;;;;;4991426;28;20038;-60
2023/01/28 12:47:01;;;;;;;12.55;8.35;;;;;;;;;;4990994;28;20062;-60
2023/01/28 12:49:52;;;;;;;11.85;7.80;;;;;;;;;;4991382;28;20065;-60
2023/01/28 12:52:29;;;;;;;11.32;7.85;;;;;;;;;;4991165;28;20077;-60
2023/01/28 12:55:39;;;;;;;9.70;7.40;;;;;;;;;;4991099;28;20037;-60
2023/01/28 12:58:11;;;;;;;11.25;8.05;;;;;;;;;;4966754;28;20046;-60
2023/01/28 13:00:42;;;;;;;11.07;7.68;;;;;;;;;;4991146;28;20034;-60
2023/01/28 13:03:38;;;;;;;10.68;7.68;;;;;;;;;;4991030;28;20045;-59
2023/01/28 13:06:12;;;;;;;11.82;7.70;;;;;;;;;;4963451;28;20038;-60
2023/01/28 13:08:37;;;;;;;11.88;7.93;;;;;;;;;;4990664;28;20032;-60
2023/01/28 13:11:04;;;;;;;10.30;8.02;;;;;;;;;;4990759;28;20034;-61
2023/01/28 13:13:33;;;;;;;10.70;8.07;;;;;;;;;;4991045;28;20034;-61
2023/01/28 13:16:00;;;;;;;9.70;7.38;;;;;;;;;;4990611;28;20090;-60
2023/01/28 13:18:33;;;;;;;11.75;7.63;;;;;;;;;;4990508;28;20040;-61
2023/01/28 13:21:04;;;;;;;11.07;7.75;;;;;;;;;;4991168;28;20443;-61
2023/01/28 13:23:30;;;;;;;11.38;8.07;;;;;;;;;;4990770;28;20034;-61
2023/01/28 13:26:07;;;;;;;13.25;8.32;;;;;;;;;;4990881;28;20089;-61
2023/01/28 13:28:33;;;;;;;11.35;7.85;;;;;;;;;;4990887;28;20037;-61
2023/01/28 13:31:02;;;;;;;10.88;7.80;;;;;;;;;;4990803;28;20394;-62
2023/01/28 13:33:34;;;;;;;11.85;7.82;;;;;;;;;;4990873;28;20037;-61
2023/01/28 13:36:07;;;;;;;11.23;7.53;;;;;;;;;;4991028;28;20022;-62
2023/01/28 13:38:33;;;;;;;14.13;7.68;;;;;;;;;;4990163;28;20030;-61
2023/01/28 13:41:00;;;;;;;10.18;7.50;;;;;;;;;;4972937;28;20026;-64
2023/01/28 13:43:31;;;;;;;9.98;7.32;;;;;;;;;;4983018;28;20058;-60
2023/01/28 13:46:09;;;;;;;10.82;7.25;;;;;;;;;;4980716;28;20129;-61
2023/01/28 13:48:57;;;;;;;10.23;7.55;;;;;;;;;;4982791;28;20041;-61
2023/01/28 13:51:30;;;;;;;18.02;8.07;;;;;;;;;;4984063;28;20229;-61
2023/01/28 13:54:10;;;;;;;10.90;7.50;;;;;;;;;;4983170;28;20031;-61
2023/01/28 13:56:51;;;;;;;10.98;7.82;;;;;;;;;;4974467;28;20517;-61
2023/01/28 13:59:30;;;;;;;10.82;7.50;;;;;;;;;;4974460;28;20122;-61
2023/01/28 14:02:19;;;;;;;11.57;7.43;;;;;;;;;;4974508;28;20066;-61
2023/01/28 14:04:51;;;;;;;12.13;7.57;;;;;;;;;;4974426;28;20031;-61
2023/01/28 14:07:35;;;;;;;11.77;8.00;;;;;;;;;;4974359;28;20027;-61
2023/01/28 14:10:10;;;;;;;11.13;7.38;;;;;;;;;;4974369;28;20495;-61
2023/01/28 14:12:53;;;;;;;11.20;7.63;;;;;;;;;;4973060;28;20510;-61
2023/01/28 14:16:00;;;;;;;9.35;7.30;;;;;;;;;;4974393;28;20023;-61
2023/01/28 14:18:42;;;;;;;12.38;7.53;;;;;;;;;;4913707;29;20500;-60
2023/01/28 14:21:19;;;;;;;12.05;7.82;;;;;;;;;;4970348;28;20124;-60
2023/01/28 14:23:55;;;;;;;11.85;7.60;;;;;;;;;;4974035;28;20039;-60
2023/01/28 14:26:31;;;;;;;11.48;7.28;;;;;;;;;;4973956;28;20027;-60
2023/01/28 14:29:34;;;;;;;12.77;8.10;;;;;;;;;;4974028;28;20038;-61
2023/01/28 14:32:05;;;;;;;13.75;7.30;;;;;;;;;;4974031;28;20033;-60
2023/01/28 14:34:34;;;;;;;13.38;7.65;;;;;;;;;;4973814;28;20070;-60
2023/01/28 14:37:05;;;;;;;13.27;7.50;;;;;;;;;;4973714;28;20058;-62
2023/01/28 14:39:52;;;;;;;12.13;7.43;;;;;;;;;;4980883;28;20105;-60
2023/01/28 14:42:22;;;;;;;12.50;7.63;;;;;;;;;;4977996;28;20638;-61
2023/01/28 14:44:55;;;;;;;10.35;7.20;;;;;;;;;;4985894;28;20035;-60
2023/01/28 14:47:33;;;;;;;10.98;7.60;;;;;;;;;;4986552;28;20031;-60
2023/01/28 14:50:07;;;;;;;11.68;7.70;;;;;;;;;;4964291;28;20026;-60
2023/01/28 14:52:54;;;;;;;10.20;7.40;;;;;;;;;;4980587;28;20045;-62
2023/01/28 14:55:57;;;;;;;10.55;7.45;;;;;;;;;;4987418;28;20490;-61
2023/01/28 14:58:31;;;;;;;10.32;7.05;;;;;;;;;;4981291;28;20054;-60
2023/01/28 15:00:58;;;;;;;13.20;7.68;;;;;;;;;;4979583;28;20039;-61
2023/01/28 15:03:25;;;;;;;15.07;8.27;;;;;;;;;;4981571;28;20030;-61
2023/01/28 15:06:24;;;;;;;12.00;8.18;;;;;;;;;;4982751;28;20121;-61
2023/01/28 15:08:53;;;;;;;13.88;7.95;;;;;;;;;;4962466;28;20038;-61
2023/01/28 15:11:23;;;;;;;12.95;8.73;;;;;;;;;;4982559;28;20027;-61
2023/01/28 15:13:53;;;;;;;14.27;8.70;;;;;;;;;;4981209;28;20025;-61
2023/01/28 15:16:27;;;;;;;15.35;8.25;;;;;;;;;;4980171;28;20043;-61
2023/01/28 15:18:55;;;;;;;13.45;8.32;;;;;;;;;;4961282;28;20394;-60
2023/01/28 15:21:23;;;;;;;11.55;8.60;;;;;;;;;;4972957;28;20043;-61
2023/01/28 15:23:54;;;;;;;12.15;8.30;;;;;;;;;;4972939;28;20026;-61
2023/01/28 15:26:30;;;;;;;14.43;8.20;;;;;;;;;;4973025;28;20644;-60
2023/01/28 15:28:56;;;;;;;15.32;8.80;;;;;;;;;;4980100;28;20499;-60
2023/01/28 15:31:33;;;;;;;16.73;8.73;;;;;;;;;;4981551;28;20034;-60